Time;durP1;ratioP1;P1;durP2;ratioP2;P2;SDS_P1;SDS_P2;PMS_P1;PMS_P2;Temp;Humidity;BMP_temperature;BMP_pressure;BME280_temperature;BME280_humidity;BME280_pressure;Samples;Min_cycle;Max_cycle;Signal;HPM_P1;HPM_P2
2023/10/07 00:00:31;;;;;;;0.20;0.20;;;17.90;99.90;;;;;;5013778;28;20053;-85
2023/10/07 00:02:59;;;;;;;0.20;0.20;;;17.90;99.90;;;;;;5014521;28;20041;-85
2023/10/07 00:05:40;;;;;;;0.10;0.10;;;17.90;99.90;;;;;;5013211;28;20115;-86
2023/10/07 00:08:08;;;;;;;0.20;0.20;;;18.00;99.90;;;;;;5016788;28;20086;-84
2023/10/07 00:10:37;;;;;;;0.20;0.20;;;17.90;99.90;;;;;;5010808;28;20420;-86
2023/10/07 00:13:08;;;;;;;0.20;0.20;;;17.90;99.90;;;;;;5013153;28;20049;-86
2023/10/07 00:15:34;;;;;;;;;;;18.00;99.90;;;;;;5009081;28;20396;-84
2023/10/07 00:18:04;;;;;;;0.10;0.10;;;17.90;99.90;;;;;;5011090;28;19970;-85
2023/10/07 00:20:33;;;;;;;0.20;0.20;;;18.00;99.90;;;;;;5012098;28;20567;-85
2023/10/07 00:23:00;;;;;;;0.20;0.20;;;18.00;99.90;;;;;;5012541;28;20048;-86
2023/10/07 00:25:30;;;;;;;0.10;0.10;;;17.90;99.90;;;;;;5010908;28;20084;-85
2023/10/07 00:27:58;;;;;;;0.20;0.20;;;18.00;99.90;;;;;;5012891;28;20130;-84
2023/10/07 00:30:27;;;;;;;0.10;0.10;;;18.00;99.90;;;;;;5012251;28;20120;-85
2023/10/07 00:32:55;;;;;;;0.20;0.20;;;18.00;99.90;;;;;;5013151;28;20150;-85
2023/10/07 00:35:27;;;;;;;0.20;0.20;;;18.00;99.90;;;;;;5010763;28;20369;-86
2023/10/07 00:37:53;;;;;;;0.20;0.20;;;18.00;99.90;;;;;;5009783;28;20088;-86
2023/10/07 00:40:32;;;;;;;0.20;0.20;;;18.00;99.90;;;;;;5010659;28;20484;-86
2023/10/07 00:42:58;;;;;;;0.10;0.10;;;17.90;99.90;;;;;;5009977;28;20049;-86
2023/10/07 00:45:28;;;;;;;0.22;0.20;;;17.90;99.90;;;;;;5008609;28;20128;-85
2023/10/07 00:48:00;;;;;;;0.20;0.20;;;17.90;99.90;;;;;;5003976;28;20049;-85
2023/10/07 00:50:27;;;;;;;0.10;0.10;;;17.90;99.90;;;;;;5006803;28;20038;-85
2023/10/07 00:55:36;;;;;;;0.20;0.20;;;17.80;99.90;;;;;;5009865;28;20049;-86
2023/10/07 00:58:20;;;;;;;0.20;0.20;;;17.80;99.90;;;;;;5011576;28;20128;-84
2023/10/07 01:00:47;;;;;;;0.20;0.20;;;17.80;99.90;;;;;;5011499;28;20104;-85
2023/10/07 01:03:47;;;;;;;0.20;0.20;;;17.80;99.90;;;;;;5012284;28;20047;-85
2023/10/07 01:08:32;;;;;;;0.20;0.20;;;17.70;99.90;;;;;;5008632;28;20057;-84
2023/10/07 01:11:09;;;;;;;0.20;0.20;;;17.70;99.90;;;;;;5011963;28;20051;-84
2023/10/07 01:13:35;;;;;;;0.20;0.20;;;17.70;99.90;;;;;;5010321;28;20306;-83
2023/10/07 01:16:06;;;;;;;0.20;0.20;;;17.60;99.90;;;;;;5009551;28;20042;-84
2023/10/07 01:18:38;;;;;;;0.20;0.20;;;17.60;99.90;;;;;;5010627;28;20056;-83
2023/10/07 01:21:11;;;;;;;0.15;0.15;;;17.60;99.90;;;;;;5012417;28;20512;-83
2023/10/07 01:23:40;;;;;;;0.20;0.20;;;17.50;99.90;;;;;;5012021;28;20033;-84
2023/10/07 01:26:15;;;;;;;0.20;0.20;;;17.60;99.90;;;;;;5011497;28;20044;-83
2023/10/07 01:28:42;;;;;;;0.20;0.20;;;17.60;99.90;;;;;;5029696;28;20088;-83
2023/10/07 01:31:08;;;;;;;0.20;0.20;;;17.50;99.90;;;;;;5012022;28;20042;-83
2023/10/07 01:33:47;;;;;;;0.17;0.17;;;17.50;99.90;;;;;;5011020;28;20460;-84
2023/10/07 01:38:44;;;;;;;0.20;0.20;;;17.50;99.90;;;;;;5014207;28;20050;-83
2023/10/07 01:41:20;;;;;;;0.20;0.20;;;17.50;99.90;;;;;;5011967;28;20124;-86
2023/10/07 01:43:59;;;;;;;0.20;0.20;;;17.50;99.90;;;;;;5011572;28;20076;-84
2023/10/07 01:46:32;;;;;;;0.10;0.10;;;17.50;99.90;;;;;;5011091;28;20068;-83
2023/10/07 01:49:12;;;;;;;0.20;0.20;;;17.50;99.90;;;;;;5011943;28;20422;-83
2023/10/07 01:51:44;;;;;;;0.20;0.20;;;17.50;99.90;;;;;;5006216;28;20045;-83
2023/10/07 01:54:11;;;;;;;0.20;0.20;;;17.50;99.90;;;;;;5006194;28;20489;-83
2023/10/07 01:56:38;;;;;;;0.20;0.20;;;17.50;99.90;;;;;;5004891;28;20172;-86
2023/10/07 02:01:47;;;;;;;0.20;0.20;;;17.60;99.90;;;;;;5008636;28;20069;-83
2023/10/07 02:04:17;;;;;;;0.20;0.20;;;17.50;99.90;;;;;;5010832;28;20042;-84
2023/10/07 02:06:51;;;;;;;0.20;0.20;;;17.50;99.90;;;;;;5010176;28;20037;-85
2023/10/07 02:09:27;;;;;;;0.20;0.20;;;17.50;99.90;;;;;;5016994;28;20069;-85
2023/10/07 02:12:01;;;;;;;0.20;0.20;;;17.60;99.90;;;;;;5009449;28;20045;-84
2023/10/07 02:14:28;;;;;;;0.20;0.20;;;17.60;99.90;;;;;;5030536;28;20046;-85
2023/10/07 02:16:56;;;;;;;0.20;0.20;;;17.60;99.90;;;;;;5008181;28;20037;-83
2023/10/07 02:19:29;;;;;;;0.10;0.10;;;17.60;99.90;;;;;;5011556;28;20143;-83
2023/10/07 02:22:13;;;;;;;0.20;0.20;;;17.60;99.90;;;;;;5026068;28;20635;-84
2023/10/07 02:24:41;;;;;;;0.20;0.20;;;17.60;99.90;;;;;;5012722;28;20052;-83
2023/10/07 02:27:18;;;;;;;0.20;0.20;;;17.60;99.90;;;;;;5010983;28;20115;-84
2023/10/07 02:29:48;;;;;;;0.10;0.10;;;17.70;99.90;;;;;;5012134;28;20119;-85
2023/10/07 02:32:14;;;;;;;0.20;0.20;;;17.70;99.90;;;;;;5012433;28;20112;-83
2023/10/07 02:35:01;;;;;;;0.20;0.20;;;17.70;99.90;;;;;;5012385;28;20890;-84
2023/10/07 02:37:31;;;;;;;0.20;0.20;;;17.70;99.90;;;;;;5013000;28;20128;-84
2023/10/07 02:40:01;;;;;;;0.20;0.20;;;17.70;99.90;;;;;;5013599;28;20108;-84
2023/10/07 02:42:31;;;;;;;0.20;0.20;;;17.70;99.90;;;;;;5013501;28;20053;-85
2023/10/07 02:45:39;;;;;;;0.20;0.20;;;17.70;99.90;;;;;;5013374;28;20851;-84
2023/10/07 02:47:53;;;;;;;0.10;0.10;;;17.70;99.90;;;;;;5007933;28;20660;-84
2023/10/07 02:50:20;;;;;;;0.20;0.20;;;17.70;99.90;;;;;;5014185;28;20045;-84
2023/10/07 02:52:46;;;;;;;0.20;0.20;;;17.70;99.90;;;;;;5017433;28;20042;-85
2023/10/07 02:55:28;;;;;;;0.20;0.20;;;17.70;99.90;;;;;;5014613;28;20058;-85
2023/10/07 02:57:57;;;;;;;0.13;0.13;;;17.80;99.90;;;;;;5012768;28;20050;-85
2023/10/07 03:00:35;;;;;;;0.20;0.20;;;17.70;99.90;;;;;;5011619;28;20045;-85
2023/10/07 03:03:38;;;;;;;0.10;0.10;;;17.80;99.90;;;;;;5010960;28;20117;-86
2023/10/07 03:06:00;;;;;;;0.10;0.10;;;17.80;99.90;;;;;;5007236;28;20597;-85
2023/10/07 03:08:40;;;;;;;0.20;0.20;;;17.80;99.90;;;;;;5010399;28;20045;-84
2023/10/07 03:11:20;;;;;;;0.20;0.20;;;17.80;99.90;;;;;;5008900;28;20123;-84
2023/10/07 03:13:50;;;;;;;0.20;0.20;;;17.80;99.90;;;;;;5009816;28;20048;-84
2023/10/07 03:24:13;;;;;;;0.15;0.15;;;17.80;99.90;;;;;;5014077;28;20081;-85
2023/10/07 03:26:41;;;;;;;0.20;0.20;;;17.40;99.90;;;;;;5012604;28;20046;-85
2023/10/07 03:29:07;;;;;;;0.20;0.20;;;17.90;99.90;;;;;;5014772;28;20409;-85
2023/10/07 03:31:35;;;;;;;0.20;0.20;;;17.80;99.90;;;;;;5014024;28;20053;-86
2023/10/07 03:34:07;;;;;;;0.20;0.20;;;17.90;99.90;;;;;;5007471;28;20049;-85
2023/10/07 03:36:48;;;;;;;0.20;0.20;;;17.80;99.90;;;;;;5012355;28;20049;-84
2023/10/07 03:41:51;;;;;;;0.13;0.13;;;17.90;99.90;;;;;;5020014;28;20647;-85
2023/10/07 03:44:19;;;;;;;0.10;0.10;;;17.90;99.90;;;;;;5012503;28;20045;-85
2023/10/07 03:46:47;;;;;;;0.20;0.20;;;17.80;99.90;;;;;;5023034;28;20128;-85
2023/10/07 03:49:15;;;;;;;0.20;0.20;;;17.90;99.90;;;;;;5011807;28;20045;-84
2023/10/07 03:51:41;;;;;;;0.10;0.10;;;17.90;99.90;;;;;;5012055;28;20056;-84
2023/10/07 03:54:11;;;;;;;0.13;0.13;;;17.90;99.90;;;;;;5013330;28;20054;-85
2023/10/07 03:56:37;;;;;;;0.20;0.20;;;17.90;99.90;;;;;;5007777;28;20054;-84
2023/10/07 03:59:05;;;;;;;0.10;0.10;;;17.90;99.90;;;;;;5009750;28;20041;-85
2023/10/07 04:01:35;;;;;;;0.20;0.20;;;17.90;99.90;;;;;;5008687;28;20104;-84
2023/10/07 04:04:01;;;;;;;0.20;0.20;;;17.90;99.90;;;;;;5009085;28;20046;-84
2023/10/07 04:06:30;;;;;;;0.13;0.13;;;17.90;99.90;;;;;;5008899;28;20037;-84
2023/10/07 04:09:05;;;;;;;0.10;0.10;;;17.90;99.90;;;;;;5007407;28;20057;-85
2023/10/07 04:11:36;;;;;;;0.20;0.20;;;17.90;99.90;;;;;;5003081;28;20054;-85
2023/10/07 04:14:19;;;;;;;0.20;0.20;;;17.90;99.90;;;;;;5003943;28;20045;-86
2023/10/07 04:17:14;;;;;;;0.20;0.20;;;17.90;99.90;;;;;;5004393;28;20064;-85
2023/10/07 04:19:52;;;;;;;0.20;0.20;;;17.90;99.90;;;;;;5000894;28;20038;-85
2023/10/07 04:22:17;;;;;;;0.20;0.20;;;17.90;99.90;;;;;;5001083;28;20041;-85
2023/10/07 04:24:44;;;;;;;0.20;0.20;;;17.90;99.90;;;;;;5008984;28;20050;-85
2023/10/07 04:27:18;;;;;;;0.20;0.20;;;17.90;99.90;;;;;;5008867;28;20073;-85
2023/10/07 04:29:44;;;;;;;0.20;0.20;;;17.90;99.90;;;;;;5008439;28;20052;-85
2023/10/07 04:32:20;;;;;;;0.20;0.20;;;17.90;99.90;;;;;;5007365;28;20037;-85
2023/10/07 04:35:30;;;;;;;0.20;0.20;;;17.90;99.90;;;;;;5007892;28;20042;-85
2023/10/07 04:37:47;;;;;;;0.20;0.20;;;17.90;99.90;;;;;;5003096;28;20088;-86
2023/10/07 04:43:13;;;;;;;0.20;0.20;;;17.90;99.90;;;;;;5007365;28;20046;-85
2023/10/07 04:45:37;;;;;;;0.20;0.20;;;17.90;99.90;;;;;;5002755;28;20104;-86
2023/10/07 04:48:24;;;;;;;0.20;0.20;;;17.90;99.90;;;;;;5008623;28;20092;-85
2023/10/07 04:51:58;;;;;;;0.10;0.10;;;17.90;99.90;;;;;;5006067;28;20512;-86
2023/10/07 04:53:57;;;;;;;0.10;0.10;;;17.90;99.90;;;;;;4983516;28;20056;-86
2023/10/07 04:56:25;;;;;;;0.20;0.20;;;17.90;99.90;;;;;;5008987;28;20139;-84
2023/10/07 04:58:53;;;;;;;0.20;0.20;;;17.90;99.90;;;;;;5009361;28;20053;-84
2023/10/07 05:01:31;;;;;;;0.20;0.20;;;17.90;99.90;;;;;;4999517;28;20046;-84
2023/10/07 05:04:09;;;;;;;0.20;0.20;;;17.90;99.90;;;;;;5007088;28;20096;-85
2023/10/07 05:06:37;;;;;;;0.20;0.20;;;17.90;99.90;;;;;;5001743;28;20123;-84
2023/10/07 05:09:09;;;;;;;0.20;0.20;;;17.90;99.90;;;;;;5007646;28;20072;-86
2023/10/07 05:11:47;;;;;;;0.20;0.20;;;17.90;99.90;;;;;;5006454;28;20042;-86
2023/10/07 05:14:22;;;;;;;0.20;0.20;;;17.90;99.90;;;;;;5004019;28;20071;-84
2023/10/07 05:16:48;;;;;;;0.20;0.20;;;17.90;99.90;;;;;;5008435;28;20050;-85
2023/10/07 05:19:22;;;;;;;0.20;0.20;;;17.90;99.90;;;;;;5004154;28;20131;-85
2023/10/07 05:21:59;;;;;;;0.20;0.20;;;17.90;99.90;;;;;;5005829;28;20060;-85
2023/10/07 05:24:32;;;;;;;0.10;0.10;;;17.80;99.90;;;;;;5007235;28;20045;-86
2023/10/07 05:26:59;;;;;;;0.17;0.17;;;17.90;99.90;;;;;;5006932;28;20052;-85
2023/10/07 05:29:26;;;;;;;0.20;0.20;;;17.90;99.90;;;;;;5008758;28;20498;-85
2023/10/07 05:31:52;;;;;;;0.17;0.17;;;17.90;99.90;;;;;;5008667;28;20037;-86
2023/10/07 05:34:18;;;;;;;0.20;0.20;;;17.90;99.90;;;;;;5007540;28;20053;-86
2023/10/07 05:36:44;;;;;;;0.20;0.20;;;17.90;99.90;;;;;;5006103;28;20041;-84
2023/10/07 05:39:13;;;;;;;0.20;0.20;;;17.90;99.90;;;;;;5006943;28;20096;-86
2023/10/07 05:41:41;;;;;;;0.20;0.20;;;17.90;99.90;;;;;;5007140;28;20068;-86
2023/10/07 05:44:09;;;;;;;0.20;0.20;;;17.90;99.90;;;;;;5006790;28;20130;-86
2023/10/07 05:46:35;;;;;;;0.20;0.20;;;17.90;99.90;;;;;;5009975;28;20413;-86
2023/10/07 05:49:01;;;;;;;0.20;0.20;;;17.90;99.90;;;;;;5011235;28;20052;-85
2023/10/07 05:51:26;;;;;;;0.10;0.10;;;17.90;99.90;;;;;;5012396;28;20389;-84
2023/10/07 05:53:52;;;;;;;0.20;0.20;;;17.90;99.90;;;;;;5011766;28;20054;-85
2023/10/07 05:56:18;;;;;;;0.10;0.10;;;17.90;99.90;;;;;;5015672;28;20051;-85
2023/10/07 05:58:48;;;;;;;0.20;0.20;;;17.90;99.90;;;;;;5015323;28;20041;-84
2023/10/07 06:01:14;;;;;;;0.20;0.20;;;17.90;99.90;;;;;;5015006;28;20046;-85
2023/10/07 06:03:42;;;;;;;0.10;0.10;;;17.90;99.90;;;;;;5015537;28;20124;-84
2023/10/07 06:06:09;;;;;;;0.10;0.10;;;17.90;99.90;;;;;;5015516;28;20404;-84
2023/10/07 06:08:35;;;;;;;0.20;0.20;;;17.80;99.90;;;;;;5012011;28;20084;-84
2023/10/07 06:11:02;;;;;;;0.10;0.10;;;17.90;99.90;;;;;;5016264;28;20693;-83
2023/10/07 06:13:28;;;;;;;0.20;0.20;;;17.80;99.90;;;;;;5012491;28;20450;-83
2023/10/07 06:15:59;;;;;;;0.20;0.20;;;17.80;99.90;;;;;;5013730;28;20042;-84
2023/10/07 06:18:25;;;;;;;;;;;17.80;99.90;;;;;;5013951;28;20050;-84
2023/10/07 06:20:52;;;;;;;0.20;0.20;;;17.70;99.90;;;;;;5008340;28;19983;-85
2023/10/07 06:23:20;;;;;;;0.20;0.20;;;17.70;99.90;;;;;;5008830;28;20104;-84
2023/10/07 06:25:50;;;;;;;0.20;0.20;;;17.70;99.90;;;;;;5014907;28;20666;-84
2023/10/07 06:31:12;;;;;;;0.10;0.10;;;17.70;99.90;;;;;;5011577;28;20073;-85
2023/10/07 06:33:41;;;;;;;0.10;0.10;;;17.60;99.90;;;;;;5012456;28;20120;-84
2023/10/07 06:36:12;;;;;;;0.10;0.10;;;17.60;99.90;;;;;;5009751;28;20049;-83
2023/10/07 06:38:45;;;;;;;0.20;0.20;;;17.60;99.90;;;;;;5013663;28;20042;-83
2023/10/07 06:41:12;;;;;;;0.20;0.20;;;17.60;99.90;;;;;;5014981;28;20477;-83
2023/10/07 06:43:42;;;;;;;0.10;0.10;;;17.60;99.90;;;;;;5013843;28;20490;-82
2023/10/07 06:46:11;;;;;;;0.20;0.20;;;17.60;99.90;;;;;;5015379;28;20042;-84
2023/10/07 06:48:40;;;;;;;0.20;0.20;;;17.60;99.90;;;;;;5018038;28;20050;-82
2023/10/07 06:51:06;;;;;;;0.20;0.20;;;17.60;99.90;;;;;;5013705;28;20078;-84
2023/10/07 06:53:37;;;;;;;0.20;0.20;;;17.60;99.90;;;;;;5010437;28;20058;-84
2023/10/07 06:56:04;;;;;;;0.20;0.20;;;17.60;99.90;;;;;;5010739;28;20049;-84
2023/10/07 06:58:29;;;;;;;0.20;0.20;;;17.60;99.90;;;;;;5006819;28;20474;-83
2023/10/07 07:01:17;;;;;;;0.20;0.20;;;17.60;99.90;;;;;;5007305;28;20128;-83
2023/10/07 07:03:44;;;;;;;0.20;0.20;;;17.60;99.90;;;;;;5006274;28;20109;-81
2023/10/07 07:06:17;;;;;;;0.20;0.20;;;17.60;99.90;;;;;;5012078;28;20072;-81
2023/10/07 07:08:45;;;;;;;0.20;0.20;;;17.50;99.90;;;;;;5008455;28;20037;-75
2023/10/07 07:11:16;;;;;;;0.10;0.10;;;17.60;99.90;;;;;;5009287;28;20048;-76
2023/10/07 07:13:44;;;;;;;0.20;0.20;;;17.60;99.90;;;;;;5010018;28;20049;-76
2023/10/07 07:16:13;;;;;;;0.13;0.13;;;17.60;99.90;;;;;;5012392;28;20049;-76
2023/10/07 07:18:40;;;;;;;0.20;0.20;;;17.60;99.90;;;;;;5010413;28;20072;-76
2023/10/07 07:23:51;;;;;;;0.10;0.10;;;17.60;99.90;;;;;;5006853;28;20062;-76
2023/10/07 07:26:21;;;;;;;0.15;0.15;;;17.60;99.90;;;;;;5010640;28;20084;-76
2023/10/07 07:28:47;;;;;;;0.20;0.20;;;17.70;99.90;;;;;;5010740;28;20034;-77
2023/10/07 07:31:18;;;;;;;0.13;0.13;;;17.70;99.90;;;;;;5010710;28;20077;-76
2023/10/07 07:33:48;;;;;;;0.20;0.20;;;17.70;99.90;;;;;;5008388;28;20112;-76
2023/10/07 07:39:06;;;;;;;0.20;0.20;;;17.70;99.90;;;;;;5006541;28;20049;-75
2023/10/07 07:41:35;;;;;;;0.20;0.20;;;17.90;99.90;;;;;;5009110;28;20053;-76
2023/10/07 07:44:01;;;;;;;0.20;0.20;;;17.70;99.90;;;;;;5008746;28;20038;-77
2023/10/07 07:46:30;;;;;;;0.20;0.20;;;17.80;99.90;;;;;;5007823;28;20662;-76
2023/10/07 07:49:08;;;;;;;0.10;0.10;;;17.80;99.90;;;;;;5009259;28;20081;-76
2023/10/07 07:51:43;;;;;;;0.20;0.20;;;17.80;99.90;;;;;;5009745;28;20034;-77
2023/10/07 07:54:09;;;;;;;0.30;0.30;;;17.80;99.90;;;;;;5005756;28;20053;-76
2023/10/07 07:56:38;;;;;;;0.20;0.20;;;17.80;99.90;;;;;;5010387;28;20042;-76
2023/10/07 07:59:13;;;;;;;0.15;0.15;;;17.80;99.90;;;;;;5009142;28;20548;-77
2023/10/07 08:01:50;;;;;;;0.20;0.20;;;17.90;99.90;;;;;;5008383;28;20084;-76
2023/10/07 08:04:37;;;;;;;0.20;0.20;;;18.00;99.90;;;;;;5010159;28;20453;-76
2023/10/07 08:07:18;;;;;;;1.00;0.30;;;18.00;99.90;;;;;;5008957;28;20072;-76
2023/10/07 08:09:45;;;;;;;0.20;0.20;;;18.00;99.90;;;;;;5006257;28;20052;-76
2023/10/07 08:12:18;;;;;;;0.20;0.20;;;18.00;99.90;;;;;;5008076;28;20050;-76
2023/10/07 08:14:46;;;;;;;0.15;0.15;;;18.10;99.90;;;;;;5009165;28;20046;-76
2023/10/07 08:17:15;;;;;;;0.20;0.20;;;18.10;99.90;;;;;;5010889;28;20085;-77
2023/10/07 08:19:40;;;;;;;0.20;0.20;;;18.20;99.90;;;;;;5011039;28;20068;-77
2023/10/07 08:22:16;;;;;;;0.20;0.20;;;18.20;99.90;;;;;;5006869;28;20054;-76
2023/10/07 08:24:41;;;;;;;0.20;0.20;;;18.20;99.90;;;;;;5001947;28;20044;-76
2023/10/07 08:27:43;;;;;;;0.20;0.20;;;18.20;99.90;;;;;;5005838;28;20442;-76
2023/10/07 08:29:54;;;;;;;0.20;0.20;;;18.30;99.90;;;;;;5007853;28;20054;-77
2023/10/07 08:32:35;;;;;;;0.20;0.20;;;18.20;99.90;;;;;;5010657;28;20104;-76
2023/10/07 08:35:14;;;;;;;0.10;0.10;;;18.20;99.90;;;;;;5008585;28;20080;-76
2023/10/07 08:37:45;;;;;;;0.20;0.20;;;18.30;99.90;;;;;;5007001;28;20406;-76
2023/10/07 08:40:28;;;;;;;;;;;18.20;99.90;;;;;;5009127;28;20441;-76
2023/10/07 08:43:04;;;;;;;0.10;0.10;;;18.30;99.90;;;;;;5008320;28;19921;-77
2023/10/07 08:45:33;;;;;;;0.20;0.20;;;18.30;99.90;;;;;;5009496;28;20054;-76
2023/10/07 08:48:16;;;;;;;0.20;0.20;;;18.30;99.90;;;;;;5008378;28;20084;-76
2023/10/07 08:50:55;;;;;;;0.20;0.20;;;18.30;99.90;;;;;;5004717;28;20100;-76
2023/10/07 08:53:23;;;;;;;0.20;0.20;;;18.40;99.90;;;;;;5011311;28;20599;-77
2023/10/07 08:55:57;;;;;;;0.10;0.10;;;18.40;99.90;;;;;;5011249;28;20132;-77
2023/10/07 08:58:27;;;;;;;0.20;0.20;;;18.40;99.90;;;;;;5008424;28;20095;-77
2023/10/07 09:00:55;;;;;;;0.20;0.20;;;18.40;99.90;;;;;;5027591;28;20106;-76
2023/10/07 09:03:26;;;;;;;0.20;0.20;;;18.40;99.90;;;;;;5011457;28;20459;-76
2023/10/07 09:05:53;;;;;;;0.20;0.20;;;18.40;99.90;;;;;;5008999;28;20278;-77
2023/10/07 09:08:22;;;;;;;0.10;0.10;;;18.40;99.90;;;;;;5007165;28;20040;-78
2023/10/07 09:10:51;;;;;;;0.20;0.20;;;18.40;99.90;;;;;;5013595;28;20539;-76
2023/10/07 09:13:26;;;;;;;0.20;0.20;;;18.40;99.90;;;;;;5009036;28;20057;-75
2023/10/07 09:15:53;;;;;;;0.20;0.20;;;18.40;99.90;;;;;;5003804;28;20638;-76
2023/10/07 09:18:28;;;;;;;0.20;0.20;;;18.50;99.90;;;;;;5009712;28;20136;-76
2023/10/07 09:20:56;;;;;;;0.17;0.17;;;18.50;99.90;;;;;;5008654;28;20351;-77
2023/10/07 09:23:24;;;;;;;0.20;0.20;;;18.50;99.90;;;;;;5005613;28;20045;-77
2023/10/07 09:25:51;;;;;;;0.20;0.20;;;18.50;99.90;;;;;;5009029;28;20041;-77
2023/10/07 09:28:26;;;;;;;0.13;0.13;;;18.50;99.90;;;;;;5009825;28;20045;-76
2023/10/07 09:30:51;;;;;;;0.20;0.20;;;18.50;99.90;;;;;;5008770;28;20049;-77
2023/10/07 09:33:18;;;;;;;0.20;0.20;;;18.50;99.90;;;;;;5009085;28;20171;-77
2023/10/07 09:35:49;;;;;;;0.17;0.17;;;18.50;99.90;;;;;;5029110;28;20064;-77
2023/10/07 09:38:34;;;;;;;0.20;0.20;;;18.50;99.90;;;;;;5027817;28;20048;-77
2023/10/07 09:41:11;;;;;;;0.20;0.20;;;18.50;99.90;;;;;;5027812;28;20485;-76
2023/10/07 09:43:44;;;;;;;0.20;0.20;;;18.50;99.90;;;;;;5019475;28;20500;-77
2023/10/07 09:46:11;;;;;;;0.20;0.20;;;18.50;99.90;;;;;;5011257;28;20448;-76
2023/10/07 09:48:41;;;;;;;0.20;0.20;;;18.50;99.90;;;;;;5010636;28;20045;-77
2023/10/07 09:51:14;;;;;;;0.20;0.20;;;18.50;99.90;;;;;;5010517;28;20050;-77
2023/10/07 09:54:10;;;;;;;0.17;0.17;;;18.50;99.90;;;;;;5003269;28;20309;-77
2023/10/07 09:56:58;;;;;;;0.10;0.10;;;18.50;99.90;;;;;;5006387;28;20088;-76
2023/10/07 09:59:37;;;;;;;0.20;0.20;;;18.40;99.90;;;;;;5007663;28;20057;-76
2023/10/07 10:02:43;;;;;;;0.20;0.20;;;18.50;99.90;;;;;;5006740;28;20401;-76
2023/10/07 10:05:35;;;;;;;0.20;0.20;;;18.50;99.90;;;;;;5006002;28;20050;-77
2023/10/07 10:08:29;;;;;;;0.20;0.20;;;18.50;99.90;;;;;;5005267;28;20054;-76
2023/10/07 10:10:58;;;;;;;0.20;0.20;;;18.40;99.90;;;;;;5005905;28;20061;-76
2023/10/07 10:16:04;;;;;;;0.20;0.20;;;18.50;99.90;;;;;;5004607;28;20077;-76
2023/10/07 10:18:38;;;;;;;0.20;0.20;;;18.50;99.90;;;;;;5006973;28;20065;-76
2023/10/07 10:21:09;;;;;;;0.20;0.20;;;18.50;99.90;;;;;;5003743;28;20109;-76
2023/10/07 10:23:37;;;;;;;0.20;0.20;;;18.60;99.90;;;;;;5004989;28;20044;-76
2023/10/07 10:26:14;;;;;;;0.20;0.20;;;18.60;99.90;;;;;;4999379;28;20096;-76
2023/10/07 10:28:41;;;;;;;0.20;0.20;;;18.60;99.90;;;;;;5005608;28;20041;-76
2023/10/07 10:31:19;;;;;;;0.20;0.20;;;18.70;99.90;;;;;;5007629;28;20056;-76
2023/10/07 10:33:49;;;;;;;0.20;0.20;;;18.70;99.90;;;;;;5011925;28;20125;-76
2023/10/07 10:36:22;;;;;;;0.20;0.20;;;18.80;99.90;;;;;;5009083;28;20073;-76
2023/10/07 10:38:48;;;;;;;0.10;0.10;;;18.80;99.90;;;;;;5006679;28;20397;-76
2023/10/07 10:41:14;;;;;;;0.20;0.20;;;18.80;99.90;;;;;;5010068;28;20038;-76
2023/10/07 10:43:40;;;;;;;0.20;0.20;;;18.80;99.90;;;;;;5009619;28;20092;-76
2023/10/07 10:46:07;;;;;;;0.20;0.20;;;18.80;99.90;;;;;;5011562;28;20057;-76
2023/10/07 10:48:38;;;;;;;0.25;0.25;;;18.90;99.90;;;;;;5006624;28;20101;-75
2023/10/07 10:51:05;;;;;;;0.20;0.20;;;18.90;99.90;;;;;;5008950;28;20038;-76
2023/10/07 10:53:41;;;;;;;0.20;0.20;;;18.90;99.90;;;;;;5010111;28;20172;-76
2023/10/07 10:56:08;;;;;;;0.10;0.10;;;19.00;99.90;;;;;;5010937;28;20062;-76
2023/10/07 10:58:36;;;;;;;0.20;0.20;;;19.00;99.90;;;;;;5011391;28;20046;-75
2023/10/07 11:01:05;;;;;;;0.20;0.20;;;19.10;99.90;;;;;;5011986;28;20041;-75
2023/10/07 11:03:36;;;;;;;0.10;0.10;;;19.10;99.90;;;;;;5005983;28;20445;-76
2023/10/07 11:06:06;;;;;;;0.20;0.20;;;19.10;99.90;;;;;;5010208;28;20053;-76
2023/10/07 11:08:33;;;;;;;0.20;0.20;;;19.10;99.90;;;;;;5008897;28;20134;-76
2023/10/07 11:10:58;;;;;;;0.20;0.20;;;19.10;99.90;;;;;;5009743;28;20061;-76
2023/10/07 11:13:26;;;;;;;0.17;0.17;;;19.00;99.90;;;;;;5010571;28;20076;-76
2023/10/07 11:16:10;;;;;;;0.15;0.15;;;19.00;99.90;;;;;;5011234;28;20054;-75
2023/10/07 11:18:45;;;;;;;0.20;0.20;;;19.00;99.90;;;;;;5008429;28;20042;-76
2023/10/07 11:21:19;;;;;;;0.20;0.20;;;18.90;99.90;;;;;;5010298;28;20077;-76
2023/10/07 11:23:49;;;;;;;0.20;0.20;;;18.90;99.90;;;;;;5010434;28;20096;-75
2023/10/07 11:26:19;;;;;;;0.20;0.20;;;18.90;99.90;;;;;;5004191;28;20120;-76
2023/10/07 11:28:48;;;;;;;0.20;0.20;;;18.90;99.90;;;;;;5008773;28;20301;-75
2023/10/07 11:31:20;;;;;;;0.20;0.20;;;18.90;99.90;;;;;;5010094;28;20052;-76
2023/10/07 11:33:52;;;;;;;0.20;0.20;;;18.80;99.90;;;;;;5010197;28;20037;-76
2023/10/07 11:36:18;;;;;;;0.20;0.20;;;18.80;99.90;;;;;;5010103;28;20038;-76
2023/10/07 11:38:44;;;;;;;0.20;0.20;;;18.80;99.90;;;;;;5008283;28;20453;-75
2023/10/07 11:41:13;;;;;;;0.10;0.10;;;18.80;99.90;;;;;;5010090;28;20133;-76
2023/10/07 11:43:48;;;;;;;0.20;0.20;;;18.70;99.90;;;;;;5009347;28;20124;-75
2023/10/07 11:46:15;;;;;;;0.20;0.20;;;18.70;99.90;;;;;;5009747;28;20100;-76
2023/10/07 11:48:44;;;;;;;0.20;0.20;;;18.70;99.90;;;;;;5010634;28;20088;-76
2023/10/07 11:51:10;;;;;;;0.20;0.20;;;18.80;99.90;;;;;;5009916;28;20504;-75
2023/10/07 11:53:36;;;;;;;0.10;0.10;;;18.80;99.90;;;;;;5009117;28;20057;-75
2023/10/07 11:56:05;;;;;;;0.10;0.10;;;18.80;99.90;;;;;;5009777;28;20056;-76
2023/10/07 11:58:32;;;;;;;0.20;0.20;;;18.80;99.90;;;;;;5009746;28;20042;-76
2023/10/07 12:00:58;;;;;;;0.20;0.20;;;18.90;99.90;;;;;;5008923;28;20088;-75
2023/10/07 12:03:25;;;;;;;0.20;0.20;;;18.90;99.90;;;;;;5010233;28;20092;-76
2023/10/07 12:05:51;;;;;;;0.20;0.20;;;18.90;99.90;;;;;;5009362;28;20049;-76
2023/10/07 12:08:19;;;;;;;0.20;0.20;;;18.90;99.90;;;;;;5008799;28;20041;-76
2023/10/07 12:10:46;;;;;;;0.20;0.20;;;18.80;99.90;;;;;;5009674;28;20053;-76
2023/10/07 12:13:14;;;;;;;0.20;0.20;;;18.80;99.90;;;;;;5009680;28;20049;-76
2023/10/07 12:15:42;;;;;;;0.20;0.20;;;18.80;99.90;;;;;;5009197;28;20522;-75
2023/10/07 12:18:09;;;;;;;0.20;0.20;;;18.80;99.90;;;;;;5009502;28;20565;-76
2023/10/07 12:20:35;;;;;;;0.20;0.20;;;18.80;99.90;;;;;;5006265;28;20081;-78
2023/10/07 12:23:02;;;;;;;0.20;0.20;;;18.80;99.90;;;;;;5005634;28;20180;-76
2023/10/07 12:25:30;;;;;;;0.20;0.20;;;18.80;99.90;;;;;;5005006;28;20046;-76
2023/10/07 12:27:56;;;;;;;0.20;0.20;;;18.80;99.90;;;;;;5003619;28;20451;-76
2023/10/07 12:30:22;;;;;;;0.10;0.10;;;18.80;99.90;;;;;;5009380;28;20125;-76
2023/10/07 12:32:49;;;;;;;0.10;0.10;;;18.70;99.90;;;;;;5009558;28;20037;-76
2023/10/07 12:35:15;;;;;;;0.20;0.20;;;18.80;99.90;;;;;;5008101;28;20056;-76
2023/10/07 12:37:46;;;;;;;0.20;0.20;;;18.80;99.90;;;;;;5009098;28;20398;-76
2023/10/07 12:40:17;;;;;;;;;;;18.80;99.90;;;;;;5009341;28;20046;-76
2023/10/07 12:42:44;;;;;;;0.17;0.17;;;18.80;99.90;;;;;;5002391;28;19929;-76
2023/10/07 12:45:10;;;;;;;0.20;0.20;;;18.80;99.90;;;;;;5008497;28;20058;-76
2023/10/07 12:47:39;;;;;;;0.20;0.20;;;18.80;99.90;;;;;;5008644;28;20033;-76
2023/10/07 12:50:28;;;;;;;0.20;0.20;;;18.80;99.90;;;;;;5007953;28;20153;-76
2023/10/07 12:52:58;;;;;;;0.20;0.20;;;18.80;99.90;;;;;;5005480;28;20642;-76
2023/10/07 12:55:32;;;;;;;0.10;0.10;;;18.90;99.90;;;;;;5007133;28;20092;-76
2023/10/07 12:58:15;;;;;;;0.20;0.20;;;18.90;99.90;;;;;;5005111;28;20156;-76
2023/10/07 13:00:42;;;;;;;0.20;0.20;;;18.80;99.90;;;;;;5009504;28;20143;-76
2023/10/07 13:03:08;;;;;;;0.20;0.20;;;18.80;99.90;;;;;;5006945;28;20046;-76
2023/10/07 13:05:37;;;;;;;0.20;0.20;;;18.70;99.90;;;;;;5003171;28;20066;-76
2023/10/07 13:08:12;;;;;;;0.20;0.20;;;18.70;99.90;;;;;;5007346;28;20125;-73
2023/10/07 13:10:38;;;;;;;0.20;0.20;;;18.70;99.90;;;;;;5005375;28;20041;-76
2023/10/07 13:13:04;;;;;;;0.20;0.20;;;18.70;99.90;;;;;;5002417;28;20050;-75
2023/10/07 13:15:30;;;;;;;0.20;0.20;;;18.60;99.90;;;;;;5004051;28;20042;-75
2023/10/07 13:18:02;;;;;;;0.20;0.20;;;18.60;99.90;;;;;;5007617;28;20041;-75
2023/10/07 13:20:28;;;;;;;0.20;0.20;;;18.50;99.90;;;;;;5005323;28;20049;-75
2023/10/07 13:22:57;;;;;;;0.20;0.20;;;18.50;99.90;;;;;;5006533;28;20533;-75
2023/10/07 13:25:24;;;;;;;0.20;0.20;;;18.50;99.90;;;;;;5006868;28;20086;-75
2023/10/07 13:27:50;;;;;;;0.20;0.20;;;18.50;99.90;;;;;;4998882;28;20042;-75
2023/10/07 13:30:17;;;;;;;0.13;0.13;;;18.50;99.90;;;;;;5007827;28;20586;-75
2023/10/07 13:32:44;;;;;;;0.20;0.20;;;18.50;99.90;;;;;;5007584;28;20069;-75
2023/10/07 13:35:17;;;;;;;0.20;0.20;;;18.40;99.90;;;;;;5020324;28;20161;-75
2023/10/07 13:37:43;;;;;;;0.20;0.20;;;18.40;99.90;;;;;;5002528;28;20440;-75
2023/10/07 13:40:15;;;;;;;0.20;0.20;;;18.40;99.90;;;;;;5009863;28;20045;-75
2023/10/07 13:42:49;;;;;;;0.10;0.10;;;18.40;99.90;;;;;;5006302;28;20042;-75